| time (UTC) | temp C | wind direction | speed KPH | gust KPH | rain 1hr cm | rain 24hr cm | rain mn cm | humidity % | barometer mb |
| 20260507161526 | 23 | 97 | 12.9 | 27.4 | 0.00 | 0.00 | 0.00 | 77 | 1021.0 |
| 20260507160025 | 23 | 11 | 9.7 | 24.1 | 0.00 | 0.00 | 0.00 | 78 | 1021.0 |
| 20260507154517 | 23 | 31 | 9.7 | 22.5 | 0.00 | 0.00 | 0.00 | 78 | 1021.0 |
| 20260507153003 | 23 | 30 | 9.7 | 19.3 | 0.00 | 0.00 | 0.00 | 78 | 1021.0 |
| 20260507151506 | 22 | 53 | 9.7 | 20.9 | 0.00 | 0.00 | 0.00 | 79 | 1021.0 |
| 20260507150010 | 22 | 55 | 9.7 | 24.1 | 0.00 | 0.00 | 0.00 | 81 | 1021.1 |
| 20260507144514 | 22 | 18 | 11.3 | 22.5 | 0.00 | 0.00 | 0.00 | 80 | 1020.9 |
| 20260507143032 | 22 | 345 | 6.4 | 17.7 | 0.00 | 0.00 | 0.00 | 82 | 1021.2 |
| 20260507141503 | 22 | 346 | 4.8 | 12.9 | 0.00 | 0.00 | 0.00 | 82 | 1021.3 |
| 20260507140007 | 22 | 4 | 6.4 | 14.5 | 0.00 | 0.00 | 0.00 | 80 | 1021.3 |
| 20260507134509 | 22 | 31 | 6.4 | 16.1 | 0.00 | 0.00 | 0.00 | 79 | 1020.9 |
| 20260507133016 | 22 | 56 | 6.4 | 12.9 | 0.00 | 0.00 | 0.00 | 80 | 1020.7 |
| 20260507131520 | 22 | 57 | 6.4 | 17.7 | 0.00 | 0.00 | 0.00 | 80 | 1020.5 |
| 20260507130005 | 21 | 142 | 1.6 | 6.4 | 0.00 | 0.00 | 0.00 | 82 | 1020.2 |
| 20260507124507 | 20 | 77 | 1.6 | 9.7 | 0.00 | 0.00 | 0.00 | 83 | 1020.1 |
| 20260507123011 | 20 | 77 | 0.0 | 6.4 | 0.00 | 0.00 | 0.00 | 86 | 1020.0 |
| 20260507121517 | 20 | 70 | 0.0 | 3.2 | 0.00 | 0.00 | 0.00 | 86 | 1019.9 |
| 20260507120020 | 19 | 153 | 3.2 | 4.8 | 0.00 | 0.00 | 0.00 | 88 | 1019.9 |
| 20260507114528 | 18 | 84 | 0.0 | 6.4 | 0.00 | 0.00 | 0.00 | 88 | 1019.8 |
| 20260507113008 | 18 | 76 | 1.6 | 6.4 | 0.00 | 0.00 | 0.00 | 89 | 1019.7 |
| 20260507111512 | 18 | 63 | 1.6 | 6.4 | 0.00 | 0.00 | 0.00 | 88 | 1019.5 |
| 20260507110021 | 19 | 84 | 1.6 | 3.2 | 0.00 | 0.00 | 0.00 | 88 | 1019.3 |
| 20260507104525 | 18 | 33 | 0.0 | 3.2 | 0.00 | 0.00 | 0.00 | 87 | 1019.1 |
| 20260507103025 | 18 | 75 | 0.0 | 3.2 | 0.00 | 0.00 | 0.00 | 87 | 1019.1 |
| 20260507101512 | 19 | 91 | 1.6 | 4.8 | 0.00 | 0.00 | 0.00 | 87 | 1019.0 |
| 20260507100013 | 20 | 65 | 1.6 | 8.0 | 0.00 | 0.00 | 0.00 | 87 | 1018.9 |
| 20260507094521 | 20 | 32 | 3.2 | 11.3 | 0.00 | 0.00 | 0.00 | 87 | 1018.8 |
| 20260507093024 | 20 | 61 | 4.8 | 11.3 | 0.00 | 0.00 | 0.00 | 87 | 1018.8 |
| 20260507091533 | 19 | 52 | 3.2 | 17.7 | 0.00 | 0.00 | 0.00 | 87 | 1018.8 |
| 20260507090013 | 19 | 113 | 1.6 | 6.4 | 0.00 | 0.00 | 0.00 | 87 | 1018.8 |
| 20260507084518 | 19 | 78 | 0.0 | 4.8 | 0.00 | 0.00 | 0.00 | 87 | 1018.9 |
| 20260507083021 | 20 | 91 | 1.6 | 9.7 | 0.00 | 0.00 | 0.00 | 86 | 1018.9 |
| 20260507081525 | 20 | 74 | 1.6 | 8.0 | 0.00 | 0.00 | 0.00 | 85 | 1019.2 |
| 20260507080028 | 19 | 64 | 6.4 | 11.3 | 0.00 | 0.00 | 0.00 | 86 | 1019.3 |
| 20260507074516 | 20 | 59 | 1.6 | 8.0 | 0.00 | 0.00 | 0.00 | 86 | 1019.5 |
| 20260507073018 | 20 | 62 | 1.6 | 9.7 | 0.00 | 0.00 | 0.00 | 85 | 1019.5 |
| 20260507071532 | 20 | 60 | 3.2 | 8.0 | 0.00 | 0.00 | 0.00 | 85 | 1019.7 |
| 20260507070011 | 20 | 102 | 0.0 | 6.4 | 0.00 | 0.00 | 0.00 | 85 | 1019.9 |
| 20260507064519 | 20 | 59 | 0.0 | 4.8 | 0.00 | 0.00 | 0.00 | 86 | 1020.2 |
| 20260507063019 | 20 | 82 | 4.8 | 9.7 | 0.00 | 0.00 | 0.00 | 86 | 1020.3 |
| 20260507061521 | 20 | 358 | 3.2 | 9.7 | 0.00 | 0.00 | 0.00 | 86 | 1020.3 |
| 20260507060004 | 20 | 80 | 3.2 | 6.4 | 0.00 | 0.00 | 0.00 | 88 | 1020.5 |
| 20260507054508 | 20 | 89 | 0.0 | 3.2 | 0.00 | 0.00 | 0.00 | 88 | 1020.8 |
| 20260507053012 | 20 | 61 | 3.2 | 8.0 | 0.00 | 0.00 | 0.00 | 87 | 1020.9 |
| 20260507051522 | 20 | 68 | 6.4 | 12.9 | 0.00 | 0.00 | 0.00 | 86 | 1021.0 |
| 20260507050035 | 20 | 100 | 3.2 | 14.5 | 0.00 | 0.00 | 0.00 | 85 | 1021.3 |
| 20260507044508 | 20 | 68 | 4.8 | 14.5 | 0.00 | 0.00 | 0.00 | 86 | 1021.4 |
| 20260507043012 | 20 | 46 | 9.7 | 16.1 | 0.00 | 0.00 | 0.00 | 87 | 1021.4 |
| 20260507041523 | 20 | 43 | 6.4 | 12.9 | 0.00 | 0.00 | 0.00 | 88 | 1021.5 |
| 20260507040021 | 20 | 62 | 6.4 | 14.5 | 0.00 | 0.00 | 0.00 | 88 | 1021.4 |
| 20260507034524 | 20 | 56 | 4.8 | 12.9 | 0.00 | 0.00 | 0.00 | 88 | 1021.6 |
| 20260507033008 | 20 | 15 | 6.4 | 12.9 | 0.00 | 0.00 | 0.00 | 88 | 1021.3 |
| 20260507031510 | 20 | 41 | 3.2 | 14.5 | 0.00 | 0.00 | 0.00 | 88 | 1021.3 |
| 20260507030026 | 20 | 70 | 4.8 | 12.9 | 0.00 | 0.00 | 0.00 | 88 | 1021.1 |
| 20260507024527 | 20 | 66 | 6.4 | 19.3 | 0.00 | 0.00 | 0.00 | 88 | 1021.1 |
| 20260507023027 | 20 | 39 | 3.2 | 14.5 | 0.00 | 0.00 | 0.00 | 88 | 1020.8 |
| 20260507021526 | 20 | 20 | 6.4 | 9.7 | 0.00 | 0.00 | 0.00 | 89 | 1020.8 |
| 20260507020014 | 20 | 27 | 3.2 | 11.3 | 0.00 | 0.00 | 0.00 | 89 | 1020.8 |
| 20260507014520 | 20 | 25 | 6.4 | 14.5 | 0.00 | 0.00 | 0.00 | 89 | 1020.8 |
| 20260507013023 | 20 | 86 | 1.6 | 11.3 | 0.00 | 0.00 | 0.00 | 89 | 1020.7 |
| 20260507011526 | 20 | 19 | 8.0 | 16.1 | 0.00 | 0.00 | 0.00 | 89 | 1020.5 |
| 20260507010034 | 20 | 14 | 8.0 | 14.5 | 0.00 | 0.00 | 0.00 | 90 | 1020.4 |
| 20260507004520 | 20 | 30 | 11.3 | 16.1 | 0.00 | 0.00 | 0.00 | 90 | 1020.3 |
| 20260507003023 | 20 | 27 | 6.4 | 16.1 | 0.00 | 0.00 | 0.00 | 89 | 1020.2 |
| 20260507001524 | 20 | 16 | 8.0 | 17.7 | 0.00 | 0.00 | 0.00 | 88 | 1019.9 |
| 20260507000012 | 20 | 46 | 3.2 | 11.3 | 0.00 | 0.00 | 0.00 | 88 | 1019.8 |
| 20260506234517 | 20 | 331 | 3.2 | 11.3 | 0.00 | 0.00 | 0.00 | 88 | 1019.7 |
| 20260506233017 | 21 | 36 | 8.0 | 22.5 | 0.00 | 0.00 | 0.00 | 87 | 1019.4 |
| 20260506231523 | 21 | 60 | 9.7 | 17.7 | 0.00 | 0.03 | 0.00 | 86 | 1019.4 |
| 20260506230027 | 21 | 72 | 9.7 | 17.7 | 0.00 | 0.05 | 0.00 | 86 | 1019.4 |
| 20260506224512 | 21 | 48 | 11.3 | 20.9 | 0.00 | 0.10 | 0.00 | 86 | 1019.2 |
| 20260506223018 | 21 | 39 | 9.7 | 17.7 | 0.00 | 0.10 | 0.00 | 87 | 1018.9 |
| 20260506221521 | 21 | 75 | 9.7 | 25.7 | 0.00 | 0.15 | 0.00 | 86 | 1018.6 |
| 20260506220034 | 21 | 332 | 11.3 | 27.4 | 0.00 | 0.15 | 0.00 | 86 | 1018.5 |
| 20260506214527 | 21 | 13 | 11.3 | 27.4 | 0.00 | 0.15 | 0.00 | 86 | 1018.5 |
| 20260506213028 | 21 | 28 | 11.3 | 30.6 | 0.00 | 0.15 | 0.00 | 86 | 1018.5 |
| 20260506211515 | 21 | 335 | 9.7 | 29.0 | 0.00 | 0.15 | 0.00 | 86 | 1018.5 |
| 20260506210028 | 21 | 49 | 14.5 | 25.7 | 0.00 | 0.15 | 0.00 | 85 | 1018.4 |
| 20260506204528 | 22 | 18 | 14.5 | 27.4 | 0.00 | 0.15 | 0.00 | 84 | 1018.3 |
| 20260506203031 | 21 | 57 | 14.5 | 27.4 | 0.00 | 0.15 | 0.00 | 84 | 1018.3 |
| 20260506201536 | 22 | 35 | 16.1 | 32.2 | 0.00 | 0.15 | 0.00 | 83 | 1018.6 |
| 20260506200017 | 23 | 72 | 14.5 | 27.4 | 0.00 | 0.15 | 0.00 | 78 | 1018.5 |
| 20260506194522 | 26 | 338 | 12.9 | 27.4 | 0.00 | 0.15 | 0.00 | 71 | 1018.6 |
| 20260506193026 | 26 | 354 | 17.7 | 27.4 | 0.00 | 0.15 | 0.00 | 68 | 1018.6 |
| 20260506191528 | 26 | 19 | 14.5 | 29.0 | 0.00 | 0.15 | 0.00 | 70 | 1019.0 |
| 20260506190030 | 26 | 8 | 12.9 | 24.1 | 0.00 | 0.15 | 0.00 | 70 | 1019.3 |
| 20260506184510 | 26 | 325 | 14.5 | 27.4 | 0.00 | 0.15 | 0.00 | 70 | 1019.6 |
| 20260506183006 | 25 | 43 | 16.1 | 29.0 | 0.00 | 0.15 | 0.00 | 72 | 1019.8 |
| 20260506181512 | 25 | 53 | 16.1 | 27.4 | 0.00 | 0.15 | 0.00 | 72 | 1019.9 |
| 20260506180021 | 24 | 51 | 14.5 | 29.0 | 0.00 | 0.15 | 0.00 | 74 | 1020.1 |
| 20260506174532 | 23 | 8 | 12.9 | 27.4 | 0.00 | 0.15 | 0.00 | 75 | 1020.4 |
| 20260506173004 | 23 | 49 | 11.3 | 20.9 | 0.00 | 0.15 | 0.00 | 76 | 1020.7 |
| 20260506171505 | 23 | 58 | 9.7 | 20.9 | 0.00 | 0.15 | 0.00 | 78 | 1021.0 |
| 20260506170012 | 23 | 12 | 11.3 | 20.9 | 0.00 | 0.15 | 0.00 | 77 | 1021.0 |
| 20260506164514 | 22 | 20 | 12.9 | 25.7 | 0.00 | 0.15 | 0.00 | 80 | 1021.3 |
| 20260506163023 | 22 | 39 | 11.3 | 22.5 | 0.00 | 0.15 | 0.00 | 79 | 1021.2 |